sensor_id;sensor_type;location;lat;lon;timestamp;P1;durP1;ratioP1;P2;durP2;ratioP2
19942;SDS011;10133;50.956;17.276;2022-12-18T00:01:20;17.83;;;10.10;;
19942;SDS011;10133;50.956;17.276;2022-12-18T00:03:48;13.85;;;8.93;;
19942;SDS011;10133;50.956;17.276;2022-12-18T00:06:16;15.05;;;9.93;;
19942;SDS011;10133;50.956;17.276;2022-12-18T00:08:44;13.32;;;9.30;;
19942;SDS011;10133;50.956;17.276;2022-12-18T00:11:12;16.55;;;10.32;;
19942;SDS011;10133;50.956;17.276;2022-12-18T00:13:41;14.70;;;9.00;;
19942;SDS011;10133;50.956;17.276;2022-12-18T00:16:09;14.30;;;8.90;;
19942;SDS011;10133;50.956;17.276;2022-12-18T00:18:38;14.05;;;9.10;;
19942;SDS011;10133;50.956;17.276;2022-12-18T00:21:07;14.50;;;9.20;;
19942;SDS011;10133;50.956;17.276;2022-12-18T00:23:36;14.23;;;9.68;;
19942;SDS011;10133;50.956;17.276;2022-12-18T00:26:06;14.38;;;9.40;;
19942;SDS011;10133;50.956;17.276;2022-12-18T00:28:53;16.20;;;9.18;;
19942;SDS011;10133;50.956;17.276;2022-12-18T00:31:22;12.80;;;8.63;;
19942;SDS011;10133;50.956;17.276;2022-12-18T00:33:51;15.52;;;9.00;;
19942;SDS011;10133;50.956;17.276;2022-12-18T00:36:22;14.35;;;9.25;;
19942;SDS011;10133;50.956;17.276;2022-12-18T00:38:50;14.45;;;9.18;;
19942;SDS011;10133;50.956;17.276;2022-12-18T00:41:19;14.45;;;9.15;;
19942;SDS011;10133;50.956;17.276;2022-12-18T00:44:05;14.50;;;8.85;;
19942;SDS011;10133;50.956;17.276;2022-12-18T00:46:34;13.55;;;8.45;;
19942;SDS011;10133;50.956;17.276;2022-12-18T00:49:01;13.43;;;8.73;;
19942;SDS011;10133;50.956;17.276;2022-12-18T00:51:28;12.93;;;8.35;;
19942;SDS011;10133;50.956;17.276;2022-12-18T00:53:55;12.50;;;8.32;;
19942;SDS011;10133;50.956;17.276;2022-12-18T00:56:22;12.75;;;8.68;;
19942;SDS011;10133;50.956;17.276;2022-12-18T00:58:49;14.18;;;8.23;;
19942;SDS011;10133;50.956;17.276;2022-12-18T01:01:17;12.70;;;8.60;;
19942;SDS011;10133;50.956;17.276;2022-12-18T01:03:44;13.63;;;8.13;;
19942;SDS011;10133;50.956;17.276;2022-12-18T01:06:13;13.60;;;9.10;;
19942;SDS011;10133;50.956;17.276;2022-12-18T01:08:41;13.70;;;8.23;;
19942;SDS011;10133;50.956;17.276;2022-12-18T01:11:09;15.57;;;8.98;;
19942;SDS011;10133;50.956;17.276;2022-12-18T01:13:38;12.98;;;8.02;;
19942;SDS011;10133;50.956;17.276;2022-12-18T01:16:06;11.82;;;7.60;;
19942;SDS011;10133;50.956;17.276;2022-12-18T01:18:33;12.95;;;8.40;;
19942;SDS011;10133;50.956;17.276;2022-12-18T01:21:00;12.23;;;8.15;;
19942;SDS011;10133;50.956;17.276;2022-12-18T01:23:31;11.52;;;8.30;;
19942;SDS011;10133;50.956;17.276;2022-12-18T01:25:58;12.55;;;8.60;;
19942;SDS011;10133;50.956;17.276;2022-12-18T01:28:29;12.10;;;7.80;;
19942;SDS011;10133;50.956;17.276;2022-12-18T01:30:56;12.10;;;7.95;;
19942;SDS011;10133;50.956;17.276;2022-12-18T01:33:23;12.35;;;8.18;;
19942;SDS011;10133;50.956;17.276;2022-12-18T01:35:50;13.23;;;8.15;;
19942;SDS011;10133;50.956;17.276;2022-12-18T01:38:17;14.68;;;8.27;;
19942;SDS011;10133;50.956;17.276;2022-12-18T01:40:44;11.35;;;7.53;;
19942;SDS011;10133;50.956;17.276;2022-12-18T01:43:11;12.35;;;8.15;;
19942;SDS011;10133;50.956;17.276;2022-12-18T01:45:37;12.52;;;7.53;;
19942;SDS011;10133;50.956;17.276;2022-12-18T01:48:05;10.70;;;7.80;;
19942;SDS011;10133;50.956;17.276;2022-12-18T01:50:41;11.88;;;7.80;;
19942;SDS011;10133;50.956;17.276;2022-12-18T01:53:21;11.93;;;7.97;;
19942;SDS011;10133;50.956;17.276;2022-12-18T01:55:50;11.40;;;7.85;;
19942;SDS011;10133;50.956;17.276;2022-12-18T01:58:20;12.15;;;7.78;;
19942;SDS011;10133;50.956;17.276;2022-12-18T02:01:07;10.40;;;7.45;;
19942;SDS011;10133;50.956;17.276;2022-12-18T02:03:35;12.38;;;8.10;;
19942;SDS011;10133;50.956;17.276;2022-12-18T02:11:40;9.98;;;7.15;;
19942;SDS011;10133;50.956;17.276;2022-12-18T02:17:10;10.13;;;6.65;;
19942;SDS011;10133;50.956;17.276;2022-12-18T02:25:05;11.18;;;7.50;;
19942;SDS011;10133;50.956;17.276;2022-12-18T02:27:42;11.23;;;7.85;;
19942;SDS011;10133;50.956;17.276;2022-12-18T02:30:12;11.90;;;7.53;;
19942;SDS011;10133;50.956;17.276;2022-12-18T02:32:41;10.98;;;7.72;;
19942;SDS011;10133;50.956;17.276;2022-12-18T02:35:12;11.48;;;7.28;;
19942;SDS011;10133;50.956;17.276;2022-12-18T02:37:43;10.88;;;7.30;;
19942;SDS011;10133;50.956;17.276;2022-12-18T02:40:12;10.93;;;7.07;;
19942;SDS011;10133;50.956;17.276;2022-12-18T02:42:41;9.90;;;6.95;;
19942;SDS011;10133;50.956;17.276;2022-12-18T02:45:08;10.30;;;7.10;;
19942;SDS011;10133;50.956;17.276;2022-12-18T02:47:37;10.80;;;7.10;;
19942;SDS011;10133;50.956;17.276;2022-12-18T02:50:51;9.80;;;6.82;;
19942;SDS011;10133;50.956;17.276;2022-12-18T02:58:27;9.50;;;7.13;;
19942;SDS011;10133;50.956;17.276;2022-12-18T03:03:55;10.32;;;6.60;;
19942;SDS011;10133;50.956;17.276;2022-12-18T03:06:32;9.63;;;7.13;;
19942;SDS011;10133;50.956;17.276;2022-12-18T03:09:06;8.30;;;6.43;;
19942;SDS011;10133;50.956;17.276;2022-12-18T03:11:39;9.70;;;6.63;;
19942;SDS011;10133;50.956;17.276;2022-12-18T03:14:29;9.65;;;7.05;;
19942;SDS011;10133;50.956;17.276;2022-12-18T03:16:59;9.57;;;7.00;;
19942;SDS011;10133;50.956;17.276;2022-12-18T03:19:31;11.10;;;7.00;;
19942;SDS011;10133;50.956;17.276;2022-12-18T03:22:00;9.07;;;6.60;;
19942;SDS011;10133;50.956;17.276;2022-12-18T03:24:30;10.23;;;6.82;;
19942;SDS011;10133;50.956;17.276;2022-12-18T03:27:02;11.30;;;7.43;;
19942;SDS011;10133;50.956;17.276;2022-12-18T03:29:42;8.95;;;6.22;;
19942;SDS011;10133;50.956;17.276;2022-12-18T03:32:10;9.02;;;6.30;;
19942;SDS011;10133;50.956;17.276;2022-12-18T03:34:41;9.60;;;6.65;;
19942;SDS011;10133;50.956;17.276;2022-12-18T03:37:10;8.23;;;6.18;;
19942;SDS011;10133;50.956;17.276;2022-12-18T03:39:37;8.55;;;6.43;;
19942;SDS011;10133;50.956;17.276;2022-12-18T03:42:07;10.95;;;6.80;;
19942;SDS011;10133;50.956;17.276;2022-12-18T03:45:07;8.40;;;6.05;;
19942;SDS011;10133;50.956;17.276;2022-12-18T03:47:58;9.43;;;6.07;;
19942;SDS011;10133;50.956;17.276;2022-12-18T03:53:36;9.70;;;6.53;;
19942;SDS011;10133;50.956;17.276;2022-12-18T03:56:38;8.68;;;6.13;;
19942;SDS011;10133;50.956;17.276;2022-12-18T03:59:10;8.63;;;5.85;;
19942;SDS011;10133;50.956;17.276;2022-12-18T04:01:42;7.30;;;5.53;;
19942;SDS011;10133;50.956;17.276;2022-12-18T04:04:14;10.07;;;6.20;;
19942;SDS011;10133;50.956;17.276;2022-12-18T04:06:42;7.90;;;6.15;;
19942;SDS011;10133;50.956;17.276;2022-12-18T04:09:11;9.00;;;6.43;;
19942;SDS011;10133;50.956;17.276;2022-12-18T04:11:39;7.93;;;6.10;;
19942;SDS011;10133;50.956;17.276;2022-12-18T04:14:08;8.80;;;5.90;;
19942;SDS011;10133;50.956;17.276;2022-12-18T04:16:42;7.47;;;5.55;;
19942;SDS011;10133;50.956;17.276;2022-12-18T04:19:09;7.70;;;5.45;;
19942;SDS011;10133;50.956;17.276;2022-12-18T04:21:36;8.73;;;6.07;;
19942;SDS011;10133;50.956;17.276;2022-12-18T04:24:03;8.50;;;6.13;;
19942;SDS011;10133;50.956;17.276;2022-12-18T04:26:31;8.93;;;6.15;;
19942;SDS011;10133;50.956;17.276;2022-12-18T04:28:57;8.10;;;5.57;;
19942;SDS011;10133;50.956;17.276;2022-12-18T04:31:24;7.63;;;5.57;;
19942;SDS011;10133;50.956;17.276;2022-12-18T04:33:51;7.40;;;5.68;;
19942;SDS011;10133;50.956;17.276;2022-12-18T04:36:18;7.47;;;5.65;;
19942;SDS011;10133;50.956;17.276;2022-12-18T04:38:45;9.02;;;6.30;;
19942;SDS011;10133;50.956;17.276;2022-12-18T04:41:12;8.27;;;5.68;;
19942;SDS011;10133;50.956;17.276;2022-12-18T04:43:39;9.27;;;6.43;;
19942;SDS011;10133;50.956;17.276;2022-12-18T04:46:06;8.07;;;5.90;;
19942;SDS011;10133;50.956;17.276;2022-12-18T04:48:34;6.82;;;5.10;;
19942;SDS011;10133;50.956;17.276;2022-12-18T04:51:02;8.48;;;6.05;;
19942;SDS011;10133;50.956;17.276;2022-12-18T04:53:29;7.70;;;5.57;;
19942;SDS011;10133;50.956;17.276;2022-12-18T04:56:06;7.90;;;5.70;;
19942;SDS011;10133;50.956;17.276;2022-12-18T04:58:35;7.72;;;5.55;;
19942;SDS011;10133;50.956;17.276;2022-12-18T05:01:03;7.65;;;5.70;;
19942;SDS011;10133;50.956;17.276;2022-12-18T05:03:30;6.18;;;5.18;;
19942;SDS011;10133;50.956;17.276;2022-12-18T05:05:57;7.65;;;5.63;;
19942;SDS011;10133;50.956;17.276;2022-12-18T05:08:24;7.35;;;5.53;;
19942;SDS011;10133;50.956;17.276;2022-12-18T05:11:00;8.15;;;5.47;;
19942;SDS011;10133;50.956;17.276;2022-12-18T05:13:32;6.97;;;5.07;;
19942;SDS011;10133;50.956;17.276;2022-12-18T05:15:59;7.85;;;5.60;;
19942;SDS011;10133;50.956;17.276;2022-12-18T05:18:27;7.65;;;5.47;;
19942;SDS011;10133;50.956;17.276;2022-12-18T05:20:54;7.65;;;5.40;;
19942;SDS011;10133;50.956;17.276;2022-12-18T05:23:21;7.57;;;5.63;;
19942;SDS011;10133;50.956;17.276;2022-12-18T05:25:53;6.90;;;5.43;;
19942;SDS011;10133;50.956;17.276;2022-12-18T05:28:22;7.25;;;5.22;;
19942;SDS011;10133;50.956;17.276;2022-12-18T05:30:50;6.50;;;5.22;;
19942;SDS011;10133;50.956;17.276;2022-12-18T05:33:18;6.90;;;5.13;;
19942;SDS011;10133;50.956;17.276;2022-12-18T05:35:50;6.88;;;5.25;;
19942;SDS011;10133;50.956;17.276;2022-12-18T05:38:22;6.78;;;5.22;;
19942;SDS011;10133;50.956;17.276;2022-12-18T05:40:51;6.78;;;5.38;;
19942;SDS011;10133;50.956;17.276;2022-12-18T05:43:18;7.93;;;5.78;;
19942;SDS011;10133;50.956;17.276;2022-12-18T05:45:47;6.38;;;5.40;;
19942;SDS011;10133;50.956;17.276;2022-12-18T05:48:15;9.23;;;5.47;;
19942;SDS011;10133;50.956;17.276;2022-12-18T05:50:43;7.00;;;5.07;;
19942;SDS011;10133;50.956;17.276;2022-12-18T05:53:12;6.20;;;4.80;;
19942;SDS011;10133;50.956;17.276;2022-12-18T05:55:41;7.18;;;5.13;;
19942;SDS011;10133;50.956;17.276;2022-12-18T05:58:09;7.57;;;5.15;;
19942;SDS011;10133;50.956;17.276;2022-12-18T06:00:38;7.88;;;5.22;;
19942;SDS011;10133;50.956;17.276;2022-12-18T06:03:06;6.57;;;4.93;;
19942;SDS011;10133;50.956;17.276;2022-12-18T06:05:38;7.18;;;5.50;;
19942;SDS011;10133;50.956;17.276;2022-12-18T06:08:07;6.50;;;4.95;;
19942;SDS011;10133;50.956;17.276;2022-12-18T06:10:35;7.47;;;4.97;;
19942;SDS011;10133;50.956;17.276;2022-12-18T06:13:02;7.53;;;5.00;;
19942;SDS011;10133;50.956;17.276;2022-12-18T06:15:29;8.50;;;5.85;;
19942;SDS011;10133;50.956;17.276;2022-12-18T06:17:56;6.20;;;4.95;;
19942;SDS011;10133;50.956;17.276;2022-12-18T06:20:23;6.43;;;5.05;;
19942;SDS011;10133;50.956;17.276;2022-12-18T06:22:57;6.20;;;4.82;;
19942;SDS011;10133;50.956;17.276;2022-12-18T06:25:23;6.20;;;4.70;;
19942;SDS011;10133;50.956;17.276;2022-12-18T06:27:50;6.10;;;4.80;;
19942;SDS011;10133;50.956;17.276;2022-12-18T06:30:17;6.28;;;4.85;;
19942;SDS011;10133;50.956;17.276;2022-12-18T06:32:44;6.45;;;5.15;;
19942;SDS011;10133;50.956;17.276;2022-12-18T06:35:13;7.10;;;4.90;;
19942;SDS011;10133;50.956;17.276;2022-12-18T06:37:40;6.32;;;5.05;;
19942;SDS011;10133;50.956;17.276;2022-12-18T06:40:08;6.22;;;5.10;;
19942;SDS011;10133;50.956;17.276;2022-12-18T06:42:35;6.60;;;5.07;;
19942;SDS011;10133;50.956;17.276;2022-12-18T06:45:02;7.50;;;5.43;;
19942;SDS011;10133;50.956;17.276;2022-12-18T06:47:29;6.20;;;4.93;;
19942;SDS011;10133;50.956;17.276;2022-12-18T06:49:56;6.47;;;4.95;;
19942;SDS011;10133;50.956;17.276;2022-12-18T06:52:23;6.68;;;4.88;;
19942;SDS011;10133;50.956;17.276;2022-12-18T06:54:49;5.53;;;4.40;;
19942;SDS011;10133;50.956;17.276;2022-12-18T06:57:16;6.07;;;4.53;;
19942;SDS011;10133;50.956;17.276;2022-12-18T06:59:43;6.40;;;4.78;;
19942;SDS011;10133;50.956;17.276;2022-12-18T07:02:11;5.75;;;4.45;;
19942;SDS011;10133;50.956;17.276;2022-12-18T07:04:39;6.10;;;4.82;;
19942;SDS011;10133;50.956;17.276;2022-12-18T07:07:06;5.70;;;4.68;;
19942;SDS011;10133;50.956;17.276;2022-12-18T07:09:33;5.25;;;4.60;;
19942;SDS011;10133;50.956;17.276;2022-12-18T07:12:00;6.75;;;4.93;;
19942;SDS011;10133;50.956;17.276;2022-12-18T07:14:27;6.38;;;4.60;;
19942;SDS011;10133;50.956;17.276;2022-12-18T07:16:55;6.50;;;4.75;;
19942;SDS011;10133;50.956;17.276;2022-12-18T07:19:22;6.32;;;4.95;;
19942;SDS011;10133;50.956;17.276;2022-12-18T07:21:49;6.57;;;4.88;;
19942;SDS011;10133;50.956;17.276;2022-12-18T07:24:17;6.75;;;4.78;;
19942;SDS011;10133;50.956;17.276;2022-12-18T07:26:46;6.28;;;4.88;;
19942;SDS011;10133;50.956;17.276;2022-12-18T07:29:14;6.32;;;4.90;;
19942;SDS011;10133;50.956;17.276;2022-12-18T07:31:41;6.43;;;4.80;;
19942;SDS011;10133;50.956;17.276;2022-12-18T07:34:14;5.78;;;4.80;;
19942;SDS011;10133;50.956;17.276;2022-12-18T07:36:41;10.98;;;6.10;;
19942;SDS011;10133;50.956;17.276;2022-12-18T07:39:10;19.13;;;7.95;;
19942;SDS011;10133;50.956;17.276;2022-12-18T07:44:10;41.30;;;27.50;;
19942;SDS011;10133;50.956;17.276;2022-12-18T07:46:37;42.75;;;26.88;;
19942;SDS011;10133;50.956;17.276;2022-12-18T07:49:04;45.75;;;26.40;;
19942;SDS011;10133;50.956;17.276;2022-12-18T07:51:31;52.23;;;29.57;;
19942;SDS011;10133;50.956;17.276;2022-12-18T07:53:58;127.10;;;59.33;;
19942;SDS011;10133;50.956;17.276;2022-12-18T07:56:25;85.43;;;39.47;;
19942;SDS011;10133;50.956;17.276;2022-12-18T07:58:54;76.70;;;36.90;;
19942;SDS011;10133;50.956;17.276;2022-12-18T08:01:23;49.23;;;23.57;;
19942;SDS011;10133;50.956;17.276;2022-12-18T08:03:50;60.87;;;26.77;;
19942;SDS011;10133;50.956;17.276;2022-12-18T08:06:18;54.37;;;23.93;;
19942;SDS011;10133;50.956;17.276;2022-12-18T08:08:50;66.17;;;27.57;;
19942;SDS011;10133;50.956;17.276;2022-12-18T08:11:21;56.83;;;23.60;;
19942;SDS011;10133;50.956;17.276;2022-12-18T08:13:49;55.97;;;23.57;;
19942;SDS011;10133;50.956;17.276;2022-12-18T08:16:16;49.80;;;21.07;;
19942;SDS011;10133;50.956;17.276;2022-12-18T08:18:45;51.80;;;21.13;;
19942;SDS011;10133;50.956;17.276;2022-12-18T08:21:17;56.57;;;24.97;;
19942;SDS011;10133;50.956;17.276;2022-12-18T08:23:47;78.67;;;29.27;;
19942;SDS011;10133;50.956;17.276;2022-12-18T08:26:16;66.10;;;25.13;;
19942;SDS011;10133;50.956;17.276;2022-12-18T08:28:44;65.07;;;24.50;;
19942;SDS011;10133;50.956;17.276;2022-12-18T08:31:11;59.60;;;21.10;;
19942;SDS011;10133;50.956;17.276;2022-12-18T08:33:38;65.83;;;27.00;;
19942;SDS011;10133;50.956;17.276;2022-12-18T08:36:07;87.57;;;31.83;;
19942;SDS011;10133;50.956;17.276;2022-12-18T08:38:35;89.87;;;33.03;;
19942;SDS011;10133;50.956;17.276;2022-12-18T08:41:04;79.83;;;29.63;;
19942;SDS011;10133;50.956;17.276;2022-12-18T08:43:32;83.43;;;31.40;;
19942;SDS011;10133;50.956;17.276;2022-12-18T08:46:18;78.53;;;27.40;;
19942;SDS011;10133;50.956;17.276;2022-12-18T08:48:46;77.23;;;27.07;;
19942;SDS011;10133;50.956;17.276;2022-12-18T08:51:15;77.23;;;27.40;;
19942;SDS011;10133;50.956;17.276;2022-12-18T08:53:43;83.70;;;29.03;;
19942;SDS011;10133;50.956;17.276;2022-12-18T08:56:10;98.07;;;33.17;;
19942;SDS011;10133;50.956;17.276;2022-12-18T08:58:38;105.70;;;36.70;;
19942;SDS011;10133;50.956;17.276;2022-12-18T09:01:06;98.70;;;34.67;;
19942;SDS011;10133;50.956;17.276;2022-12-18T09:03:35;67.50;;;25.77;;
19942;SDS011;10133;50.956;17.276;2022-12-18T09:06:03;74.13;;;29.13;;
19942;SDS011;10133;50.956;17.276;2022-12-18T09:08:31;84.00;;;29.20;;
19942;SDS011;10133;50.956;17.276;2022-12-18T09:10:58;98.43;;;32.63;;
19942;SDS011;10133;50.956;17.276;2022-12-18T09:13:25;148.80;;;45.40;;
19942;SDS011;10133;50.956;17.276;2022-12-18T09:15:52;387.10;;;110.93;;
19942;SDS011;10133;50.956;17.276;2022-12-18T09:18:21;306.53;;;96.40;;
19942;SDS011;10133;50.956;17.276;2022-12-18T09:20:49;137.80;;;46.43;;
19942;SDS011;10133;50.956;17.276;2022-12-18T09:23:19;119.60;;;39.07;;
19942;SDS011;10133;50.956;17.276;2022-12-18T09:25:47;104.37;;;33.87;;
19942;SDS011;10133;50.956;17.276;2022-12-18T09:28:15;94.40;;;33.47;;
19942;SDS011;10133;50.956;17.276;2022-12-18T09:30:44;90.33;;;31.23;;
19942;SDS011;10133;50.956;17.276;2022-12-18T09:33:16;101.03;;;36.30;;
19942;SDS011;10133;50.956;17.276;2022-12-18T09:35:43;72.37;;;28.67;;
19942;SDS011;10133;50.956;17.276;2022-12-18T09:38:12;72.03;;;26.23;;
19942;SDS011;10133;50.956;17.276;2022-12-18T09:40:48;87.70;;;31.83;;
19942;SDS011;10133;50.956;17.276;2022-12-18T09:43:24;73.07;;;26.30;;
19942;SDS011;10133;50.956;17.276;2022-12-18T09:45:58;68.80;;;25.00;;
19942;SDS011;10133;50.956;17.276;2022-12-18T09:48:30;92.47;;;31.37;;
19942;SDS011;10133;50.956;17.276;2022-12-18T09:51:02;95.03;;;31.60;;
19942;SDS011;10133;50.956;17.276;2022-12-18T09:53:35;90.63;;;29.97;;
19942;SDS011;10133;50.956;17.276;2022-12-18T09:56:06;68.60;;;25.23;;
19942;SDS011;10133;50.956;17.276;2022-12-18T09:58:45;97.37;;;32.73;;
19942;SDS011;10133;50.956;17.276;2022-12-18T10:01:21;92.17;;;34.47;;
19942;SDS011;10133;50.956;17.276;2022-12-18T10:03:50;107.40;;;37.37;;
19942;SDS011;10133;50.956;17.276;2022-12-18T10:09:10;70.87;;;25.73;;
19942;SDS011;10133;50.956;17.276;2022-12-18T10:15:10;90.37;;;31.10;;
19942;SDS011;10133;50.956;17.276;2022-12-18T10:18:06;100.13;;;37.77;;
19942;SDS011;10133;50.956;17.276;2022-12-18T10:20:54;83.43;;;30.40;;
19942;SDS011;10133;50.956;17.276;2022-12-18T10:23:32;77.87;;;27.70;;
19942;SDS011;10133;50.956;17.276;2022-12-18T10:26:16;82.57;;;27.87;;
19942;SDS011;10133;50.956;17.276;2022-12-18T10:28:43;86.30;;;29.80;;
19942;SDS011;10133;50.956;17.276;2022-12-18T10:31:16;91.60;;;34.23;;
19942;SDS011;10133;50.956;17.276;2022-12-18T10:33:45;81.70;;;29.40;;
19942;SDS011;10133;50.956;17.276;2022-12-18T10:36:12;87.33;;;32.57;;
19942;SDS011;10133;50.956;17.276;2022-12-18T10:38:39;97.27;;;34.50;;
19942;SDS011;10133;50.956;17.276;2022-12-18T10:41:26;94.27;;;30.43;;
19942;SDS011;10133;50.956;17.276;2022-12-18T10:46:54;92.97;;;32.50;;
19942;SDS011;10133;50.956;17.276;2022-12-18T10:49:33;94.40;;;32.93;;
19942;SDS011;10133;50.956;17.276;2022-12-18T10:52:05;86.70;;;30.07;;
19942;SDS011;10133;50.956;17.276;2022-12-18T10:54:45;93.43;;;32.37;;
19942;SDS011;10133;50.956;17.276;2022-12-18T10:57:16;86.57;;;31.93;;
19942;SDS011;10133;50.956;17.276;2022-12-18T10:59:53;78.83;;;27.50;;
19942;SDS011;10133;50.956;17.276;2022-12-18T11:02:36;72.17;;;26.70;;
19942;SDS011;10133;50.956;17.276;2022-12-18T11:08:03;79.33;;;29.30;;
19942;SDS011;10133;50.956;17.276;2022-12-18T11:10:35;92.17;;;32.90;;
19942;SDS011;10133;50.956;17.276;2022-12-18T11:13:20;216.17;;;70.97;;
19942;SDS011;10133;50.956;17.276;2022-12-18T11:15:49;271.70;;;96.87;;
19942;SDS011;10133;50.956;17.276;2022-12-18T11:18:17;190.33;;;68.27;;
19942;SDS011;10133;50.956;17.276;2022-12-18T11:23:33;138.17;;;51.97;;
19942;SDS011;10133;50.956;17.276;2022-12-18T11:26:02;141.77;;;54.37;;
19942;SDS011;10133;50.956;17.276;2022-12-18T11:36:56;94.50;;;33.13;;
19942;SDS011;10133;50.956;17.276;2022-12-18T11:39:36;121.23;;;41.27;;
19942;SDS011;10133;50.956;17.276;2022-12-18T11:42:10;119.53;;;42.33;;
19942;SDS011;10133;50.956;17.276;2022-12-18T11:47:34;159.37;;;48.13;;
19942;SDS011;10133;50.956;17.276;2022-12-18T11:50:11;138.47;;;43.97;;
19942;SDS011;10133;50.956;17.276;2022-12-18T11:52:42;154.67;;;46.13;;
19942;SDS011;10133;50.956;17.276;2022-12-18T11:55:13;92.37;;;34.03;;
19942;SDS011;10133;50.956;17.276;2022-12-18T12:00:42;138.13;;;45.60;;
19942;SDS011;10133;50.956;17.276;2022-12-18T12:03:24;191.67;;;62.73;;
19942;SDS011;10133;50.956;17.276;2022-12-18T12:06:09;120.00;;;48.30;;
19942;SDS011;10133;50.956;17.276;2022-12-18T12:11:50;161.70;;;47.67;;
19942;SDS011;10133;50.956;17.276;2022-12-18T12:17:12;128.30;;;40.33;;
19942;SDS011;10133;50.956;17.276;2022-12-18T12:22:58;110.80;;;38.17;;
19942;SDS011;10133;50.956;17.276;2022-12-18T12:25:56;165.07;;;51.43;;
19942;SDS011;10133;50.956;17.276;2022-12-18T12:32:45;94.83;;;32.20;;
19942;SDS011;10133;50.956;17.276;2022-12-18T12:35:25;100.67;;;36.93;;
19942;SDS011;10133;50.956;17.276;2022-12-18T12:40:44;96.57;;;32.10;;
19942;SDS011;10133;50.956;17.276;2022-12-18T12:43:43;133.40;;;41.17;;
19942;SDS011;10133;50.956;17.276;2022-12-18T12:46:34;218.37;;;60.30;;
19942;SDS011;10133;50.956;17.276;2022-12-18T12:49:10;264.03;;;72.00;;
19942;SDS011;10133;50.956;17.276;2022-12-18T12:51:43;139.77;;;42.67;;
19942;SDS011;10133;50.956;17.276;2022-12-18T12:54:15;234.57;;;64.03;;
19942;SDS011;10133;50.956;17.276;2022-12-18T12:59:25;143.03;;;46.97;;
19942;SDS011;10133;50.956;17.276;2022-12-18T13:05:14;107.23;;;39.00;;
19942;SDS011;10133;50.956;17.276;2022-12-18T13:08:22;89.03;;;33.37;;
19942;SDS011;10133;50.956;17.276;2022-12-18T13:10:50;96.53;;;34.20;;
19942;SDS011;10133;50.956;17.276;2022-12-18T13:13:51;97.60;;;30.97;;
19942;SDS011;10133;50.956;17.276;2022-12-18T13:16:22;90.77;;;31.70;;
19942;SDS011;10133;50.956;17.276;2022-12-18T13:18:51;86.83;;;29.67;;
19942;SDS011;10133;50.956;17.276;2022-12-18T13:21:25;81.50;;;28.80;;
19942;SDS011;10133;50.956;17.276;2022-12-18T13:23:55;85.30;;;30.70;;
19942;SDS011;10133;50.956;17.276;2022-12-18T13:28:55;97.17;;;35.07;;
19942;SDS011;10133;50.956;17.276;2022-12-18T13:36:54;106.77;;;38.00;;
19942;SDS011;10133;50.956;17.276;2022-12-18T13:39:24;107.80;;;38.90;;
19942;SDS011;10133;50.956;17.276;2022-12-18T13:44:56;112.40;;;41.20;;
19942;SDS011;10133;50.956;17.276;2022-12-18T13:47:28;116.17;;;40.60;;
19942;SDS011;10133;50.956;17.276;2022-12-18T13:50:00;112.10;;;39.83;;
19942;SDS011;10133;50.956;17.276;2022-12-18T13:52:36;113.63;;;39.50;;
19942;SDS011;10133;50.956;17.276;2022-12-18T13:55:06;139.37;;;46.63;;
19942;SDS011;10133;50.956;17.276;2022-12-18T13:57:41;153.33;;;55.10;;
19942;SDS011;10133;50.956;17.276;2022-12-18T14:02:58;124.53;;;43.40;;
19942;SDS011;10133;50.956;17.276;2022-12-18T14:05:35;131.97;;;46.40;;
19942;SDS011;10133;50.956;17.276;2022-12-18T14:08:06;122.13;;;41.23;;
19942;SDS011;10133;50.956;17.276;2022-12-18T14:10:41;111.17;;;41.83;;
19942;SDS011;10133;50.956;17.276;2022-12-18T14:13:19;104.50;;;36.70;;
19942;SDS011;10133;50.956;17.276;2022-12-18T14:15:54;104.50;;;38.03;;
19942;SDS011;10133;50.956;17.276;2022-12-18T14:18:29;108.93;;;39.37;;
19942;SDS011;10133;50.956;17.276;2022-12-18T14:21:21;102.70;;;34.23;;
19942;SDS011;10133;50.956;17.276;2022-12-18T14:24:11;219.50;;;63.23;;
19942;SDS011;10133;50.956;17.276;2022-12-18T14:26:44;244.03;;;76.57;;
19942;SDS011;10133;50.956;17.276;2022-12-18T14:32:03;389.80;;;93.83;;
19942;SDS011;10133;50.956;17.276;2022-12-18T14:34:47;298.10;;;74.80;;
19942;SDS011;10133;50.956;17.276;2022-12-18T14:37:16;586.90;;;148.30;;
19942;SDS011;10133;50.956;17.276;2022-12-18T14:39:54;461.87;;;117.07;;
19942;SDS011;10133;50.956;17.276;2022-12-18T14:42:35;448.77;;;119.10;;
19942;SDS011;10133;50.956;17.276;2022-12-18T14:48:18;194.30;;;58.70;;
19942;SDS011;10133;50.956;17.276;2022-12-18T14:53:54;153.67;;;49.47;;
19942;SDS011;10133;50.956;17.276;2022-12-18T14:56:36;193.57;;;62.60;;
19942;SDS011;10133;50.956;17.276;2022-12-18T14:59:19;120.77;;;43.03;;
19942;SDS011;10133;50.956;17.276;2022-12-18T15:04:34;112.47;;;35.97;;
19942;SDS011;10133;50.956;17.276;2022-12-18T15:10:00;109.37;;;36.03;;
19942;SDS011;10133;50.956;17.276;2022-12-18T15:15:43;124.07;;;40.77;;
19942;SDS011;10133;50.956;17.276;2022-12-18T15:18:10;138.70;;;45.20;;
19942;SDS011;10133;50.956;17.276;2022-12-18T15:20:39;154.60;;;46.53;;
19942;SDS011;10133;50.956;17.276;2022-12-18T15:25:49;123.20;;;41.90;;
19942;SDS011;10133;50.956;17.276;2022-12-18T15:33:36;124.77;;;43.00;;
19942;SDS011;10133;50.956;17.276;2022-12-18T15:36:10;132.30;;;48.60;;
19942;SDS011;10133;50.956;17.276;2022-12-18T15:38:38;138.83;;;49.20;;
19942;SDS011;10133;50.956;17.276;2022-12-18T15:41:05;99.63;;;33.30;;
19942;SDS011;10133;50.956;17.276;2022-12-18T15:43:39;119.50;;;41.40;;
19942;SDS011;10133;50.956;17.276;2022-12-18T15:48:45;139.10;;;46.27;;
19942;SDS011;10133;50.956;17.276;2022-12-18T15:53:51;122.40;;;41.40;;
19942;SDS011;10133;50.956;17.276;2022-12-18T15:56:20;121.47;;;42.70;;
19942;SDS011;10133;50.956;17.276;2022-12-18T15:59:11;133.73;;;45.00;;
19942;SDS011;10133;50.956;17.276;2022-12-18T16:01:44;131.57;;;41.60;;
19942;SDS011;10133;50.956;17.276;2022-12-18T16:04:14;151.73;;;48.50;;
19942;SDS011;10133;50.956;17.276;2022-12-18T16:06:42;143.87;;;43.67;;
19942;SDS011;10133;50.956;17.276;2022-12-18T16:09:29;134.00;;;40.17;;
19942;SDS011;10133;50.956;17.276;2022-12-18T16:11:56;126.60;;;42.17;;
19942;SDS011;10133;50.956;17.276;2022-12-18T16:14:28;123.10;;;39.17;;
19942;SDS011;10133;50.956;17.276;2022-12-18T16:17:00;115.10;;;36.27;;
19942;SDS011;10133;50.956;17.276;2022-12-18T16:19:28;120.70;;;36.90;;
19942;SDS011;10133;50.956;17.276;2022-12-18T16:21:56;114.50;;;37.83;;
19942;SDS011;10133;50.956;17.276;2022-12-18T16:24:25;109.67;;;34.83;;
19942;SDS011;10133;50.956;17.276;2022-12-18T16:26:55;172.83;;;46.30;;
19942;SDS011;10133;50.956;17.276;2022-12-18T16:29:23;327.40;;;85.87;;
19942;SDS011;10133;50.956;17.276;2022-12-18T16:31:54;237.97;;;65.73;;
19942;SDS011;10133;50.956;17.276;2022-12-18T16:34:22;275.30;;;75.80;;
19942;SDS011;10133;50.956;17.276;2022-12-18T16:37:04;320.37;;;97.93;;
19942;SDS011;10133;50.956;17.276;2022-12-18T16:39:33;423.73;;;118.77;;
19942;SDS011;10133;50.956;17.276;2022-12-18T16:42:14;355.47;;;107.93;;
19942;SDS011;10133;50.956;17.276;2022-12-18T16:44:45;244.47;;;77.87;;